createdAt,value
2022-12-16T00:01:26.078Z,31.33
2022-12-16T00:03:55.960Z,32.03
2022-12-16T00:06:26.427Z,33.00
2022-12-16T00:08:54.909Z,31.43
2022-12-16T00:11:23.210Z,32.20
2022-12-16T00:13:52.679Z,32.07
2022-12-16T00:16:23.049Z,30.57
2022-12-16T00:18:51.754Z,30.43
2022-12-16T00:21:20.643Z,31.00
2022-12-16T00:23:49.000Z,29.10
2022-12-16T00:26:17.054Z,29.60
2022-12-16T00:28:45.126Z,31.40
2022-12-16T00:31:14.505Z,31.57
2022-12-16T00:33:42.782Z,31.00
2022-12-16T00:36:11.085Z,32.10
2022-12-16T00:38:39.317Z,30.17
2022-12-16T00:41:08.190Z,31.57
2022-12-16T00:43:36.392Z,31.37
2022-12-16T00:46:04.783Z,31.90
2022-12-16T00:48:34.247Z,30.60
2022-12-16T00:51:02.369Z,30.77
2022-12-16T00:53:30.776Z,30.33
2022-12-16T00:56:06.329Z,31.00
2022-12-16T00:58:34.364Z,31.23
2022-12-16T01:01:02.441Z,30.40
2022-12-16T01:03:30.912Z,29.93
2022-12-16T01:06:00.407Z,29.20
2022-12-16T01:08:28.497Z,29.77
2022-12-16T01:10:58.051Z,31.47
2022-12-16T01:13:26.929Z,30.57
2022-12-16T01:15:55.006Z,29.93
2022-12-16T01:18:23.084Z,30.57
2022-12-16T01:20:51.326Z,30.17
2022-12-16T01:23:21.123Z,31.03
2022-12-16T01:25:53.069Z,29.80
2022-12-16T01:28:21.034Z,30.67
2022-12-16T01:30:49.002Z,30.00
2022-12-16T01:33:18.063Z,30.43
2022-12-16T01:35:55.306Z,30.17
2022-12-16T01:38:25.464Z,28.43
2022-12-16T01:40:55.000Z,29.17
2022-12-16T01:43:26.996Z,30.07
2022-12-16T01:45:59.737Z,30.40
2022-12-16T01:48:36.575Z,29.87
2022-12-16T01:51:08.000Z,30.20
2022-12-16T01:53:40.669Z,31.70
2022-12-16T01:56:09.666Z,29.47
2022-12-16T01:58:40.660Z,30.07
2022-12-16T02:01:09.132Z,30.80
2022-12-16T02:03:39.731Z,31.00
2022-12-16T02:06:08.794Z,29.33
2022-12-16T02:08:38.216Z,28.87
2022-12-16T02:11:37.486Z,30.37
2022-12-16T02:14:24.303Z,30.60
2022-12-16T02:16:57.682Z,29.33
2022-12-16T02:19:59.443Z,29.47
2022-12-16T02:22:38.990Z,29.53
2022-12-16T02:25:31.903Z,29.13
2022-12-16T02:28:05.942Z,30.67
2022-12-16T02:30:58.670Z,29.27
2022-12-16T02:33:44.998Z,30.53
2022-12-16T02:36:23.173Z,30.10
2022-12-16T02:38:57.946Z,29.07
2022-12-16T02:41:32.479Z,30.40
2022-12-16T02:44:04.238Z,31.83
2022-12-16T02:46:39.240Z,29.73
2022-12-16T02:49:08.706Z,31.90
2022-12-16T02:51:38.182Z,28.77
2022-12-16T02:54:09.191Z,31.60
2022-12-16T02:56:49.927Z,30.73
2022-12-16T02:59:25.770Z,30.20
2022-12-16T03:02:00.006Z,29.93
2022-12-16T03:04:38.007Z,30.90
2022-12-16T03:07:08.833Z,30.30
2022-12-16T03:09:39.286Z,31.33
2022-12-16T03:12:11.570Z,32.20
2022-12-16T03:14:43.234Z,32.37
2022-12-16T03:17:14.029Z,31.97
2022-12-16T03:19:46.077Z,32.17
2022-12-16T03:22:18.981Z,31.63
2022-12-16T03:24:47.855Z,30.20
2022-12-16T03:27:20.715Z,32.23
2022-12-16T03:30:04.573Z,32.13
2022-12-16T03:32:39.470Z,30.93
2022-12-16T03:35:14.526Z,32.20
2022-12-16T03:37:44.333Z,33.43
2022-12-16T03:40:13.967Z,30.60
2022-12-16T03:42:43.768Z,31.03
2022-12-16T03:45:16.830Z,30.70
2022-12-16T03:47:49.891Z,29.90
2022-12-16T03:50:18.831Z,32.23
2022-12-16T03:52:46.810Z,32.37
2022-12-16T03:55:15.005Z,29.27
2022-12-16T03:57:43.031Z,29.70
2022-12-16T04:00:12.428Z,33.53
2022-12-16T04:02:40.880Z,31.83
2022-12-16T04:05:11.460Z,29.63
2022-12-16T04:07:39.501Z,31.83
2022-12-16T04:10:08.537Z,32.50
2022-12-16T04:12:54.471Z,31.93
2022-12-16T04:15:40.306Z,31.83
2022-12-16T04:18:33.554Z,32.70
2022-12-16T04:21:21.266Z,33.57
2022-12-16T04:24:10.004Z,33.67
2022-12-16T04:26:51.898Z,33.77
2022-12-16T04:29:19.918Z,33.37
2022-12-16T04:31:47.961Z,33.17
2022-12-16T04:34:27.399Z,34.30
2022-12-16T04:37:27.507Z,33.50
2022-12-16T04:40:13.545Z,32.67
2022-12-16T04:42:58.991Z,30.03
2022-12-16T04:45:44.414Z,34.17
2022-12-16T04:48:29.929Z,33.93
2022-12-16T04:51:15.452Z,37.33
2022-12-16T04:54:02.641Z,36.57
2022-12-16T04:56:48.481Z,34.63
2022-12-16T04:59:34.167Z,34.57
2022-12-16T05:02:19.908Z,34.97
2022-12-16T05:05:05.691Z,40.50
2022-12-16T05:07:51.382Z,39.47
2022-12-16T05:10:49.677Z,38.23
2022-12-16T05:13:35.549Z,40.53
2022-12-16T05:16:21.327Z,40.03
2022-12-16T05:19:07.161Z,38.90
2022-12-16T05:21:54.344Z,42.40
2022-12-16T05:24:41.086Z,38.50
2022-12-16T05:27:31.506Z,44.77
2022-12-16T05:33:27.709Z,39.40
2022-12-16T05:36:13.807Z,43.30
2022-12-16T05:38:59.442Z,43.70
2022-12-16T05:41:45.439Z,45.07
2022-12-16T05:44:32.918Z,46.80
2022-12-16T05:47:18.534Z,45.37
2022-12-16T05:50:04.383Z,42.67
2022-12-16T05:52:50.487Z,39.73
2022-12-16T05:55:36.051Z,43.53
2022-12-16T05:58:22.365Z,40.93
2022-12-16T06:01:11.505Z,41.13
2022-12-16T06:03:57.115Z,39.97
2022-12-16T06:06:42.882Z,42.33
2022-12-16T06:09:28.498Z,37.37
2022-12-16T06:12:14.131Z,37.13
2022-12-16T06:15:01.927Z,37.53
2022-12-16T06:17:48.678Z,38.90
2022-12-16T06:20:34.620Z,38.00
2022-12-16T06:23:24.078Z,41.90
2022-12-16T06:26:11.155Z,42.43
2022-12-16T06:28:56.979Z,36.47
2022-12-16T06:31:42.887Z,38.80
2022-12-16T06:34:38.205Z,35.97
2022-12-16T06:37:23.711Z,37.53
2022-12-16T06:40:09.120Z,39.43
2022-12-16T06:42:58.748Z,40.77
2022-12-16T06:45:44.251Z,33.03
2022-12-16T06:48:30.271Z,35.37
2022-12-16T06:51:16.980Z,34.83
2022-12-16T06:54:02.606Z,39.13
2022-12-16T06:56:48.082Z,36.40
2022-12-16T06:59:33.786Z,37.60
2022-12-16T07:02:19.401Z,38.10
2022-12-16T07:05:07.181Z,39.83
2022-12-16T07:07:53.988Z,40.83
2022-12-16T07:10:39.263Z,41.57
2022-12-16T07:13:24.988Z,43.73
2022-12-16T07:16:10.667Z,39.13
2022-12-16T07:18:58.530Z,36.10
2022-12-16T07:21:43.855Z,34.83
2022-12-16T07:24:30.841Z,31.97
2022-12-16T07:27:16.440Z,30.80
2022-12-16T07:30:02.097Z,31.87
2022-12-16T07:32:47.497Z,32.20
2022-12-16T07:35:33.577Z,29.77
2022-12-16T07:38:18.862Z,31.57
2022-12-16T07:41:06.979Z,32.00
2022-12-16T07:43:52.866Z,28.90
2022-12-16T07:46:38.778Z,29.10
2022-12-16T07:49:24.443Z,31.90
2022-12-16T07:52:09.854Z,29.00
2022-12-16T07:54:55.114Z,28.77
2022-12-16T07:57:42.195Z,31.87
2022-12-16T08:00:29.447Z,29.27
2022-12-16T08:03:23.375Z,30.53
2022-12-16T08:06:09.040Z,32.80
2022-12-16T08:08:54.576Z,31.47
2022-12-16T08:11:40.139Z,31.83
2022-12-16T08:14:27.252Z,30.03
2022-12-16T08:17:13.118Z,29.23
2022-12-16T08:19:58.827Z,26.90
2022-12-16T08:22:44.244Z,28.53
2022-12-16T08:25:29.936Z,25.97
2022-12-16T08:28:15.975Z,30.80
2022-12-16T08:31:08.572Z,26.90
2022-12-16T08:33:54.543Z,29.30
2022-12-16T08:36:41.615Z,26.93
2022-12-16T08:39:27.307Z,27.93
2022-12-16T08:42:13.230Z,28.60
2022-12-16T08:44:58.773Z,27.27
2022-12-16T08:47:46.125Z,27.20
2022-12-16T08:50:31.662Z,29.63
2022-12-16T08:53:16.985Z,26.07
2022-12-16T08:56:02.895Z,26.00
2022-12-16T08:58:48.527Z,29.43
2022-12-16T09:01:34.288Z,29.27
2022-12-16T09:04:21.831Z,27.57
2022-12-16T09:07:07.236Z,30.63
2022-12-16T09:09:52.741Z,29.37
2022-12-16T09:12:38.194Z,26.07
2022-12-16T09:15:24.017Z,26.40
2022-12-16T09:18:12.947Z,28.87
2022-12-16T09:21:15.251Z,28.70
2022-12-16T09:24:00.761Z,28.03
2022-12-16T09:26:47.408Z,29.13
2022-12-16T09:29:33.283Z,29.43
2022-12-16T09:32:18.807Z,26.20
2022-12-16T09:35:10.061Z,28.60
2022-12-16T09:38:04.797Z,26.77
2022-12-16T09:40:50.731Z,29.60
2022-12-16T09:43:54.394Z,25.97
2022-12-16T09:46:46.688Z,27.43
2022-12-16T09:49:39.918Z,27.93
2022-12-16T09:52:33.137Z,29.90
2022-12-16T09:55:22.197Z,26.33
2022-12-16T09:58:08.637Z,28.23
2022-12-16T10:00:55.372Z,26.83
2022-12-16T10:03:56.886Z,28.57
2022-12-16T10:07:01.262Z,29.70
2022-12-16T10:09:51.109Z,26.23
2022-12-16T10:13:05.526Z,27.13
2022-12-16T10:15:56.834Z,29.70
2022-12-16T10:18:56.645Z,30.03
2022-12-16T10:21:51.700Z,31.80
2022-12-16T10:24:49.189Z,27.40
2022-12-16T10:27:37.314Z,27.73
2022-12-16T10:30:31.150Z,29.03
2022-12-16T10:33:18.139Z,29.60
2022-12-16T10:36:07.948Z,30.87
2022-12-16T10:38:58.359Z,29.40
2022-12-16T10:41:47.782Z,30.50
2022-12-16T10:44:41.868Z,26.23
2022-12-16T10:47:30.665Z,25.13
2022-12-16T10:50:17.775Z,28.33
2022-12-16T10:53:09.995Z,27.03
2022-12-16T10:56:08.132Z,26.87
2022-12-16T10:59:01.307Z,29.67
2022-12-16T11:01:47.660Z,26.60
2022-12-16T11:04:56.334Z,27.30
2022-12-16T11:07:46.022Z,24.87
2022-12-16T11:10:54.615Z,27.20
2022-12-16T11:13:44.896Z,24.80
2022-12-16T11:16:33.327Z,25.40
2022-12-16T11:19:19.645Z,25.17
2022-12-16T11:22:07.272Z,25.73
2022-12-16T11:24:53.804Z,23.70
2022-12-16T11:27:44.116Z,27.73
2022-12-16T11:30:37.297Z,26.43
2022-12-16T11:33:30.963Z,22.13
2022-12-16T11:36:32.505Z,24.67
2022-12-16T11:39:20.949Z,24.13
2022-12-16T11:42:08.769Z,23.40
2022-12-16T11:44:58.867Z,22.13
2022-12-16T11:47:54.272Z,22.87
2022-12-16T11:50:42.835Z,22.60
2022-12-16T11:53:44.221Z,22.77
2022-12-16T11:56:36.304Z,24.10
2022-12-16T11:59:30.338Z,23.97
2022-12-16T12:02:19.469Z,24.47
2022-12-16T12:05:07.666Z,23.33
2022-12-16T12:08:02.265Z,23.47
2022-12-16T12:11:11.026Z,23.83
2022-12-16T12:14:37.933Z,22.73
2022-12-16T12:17:35.998Z,24.30
2022-12-16T12:20:42.815Z,23.43
2022-12-16T12:23:30.601Z,21.37
2022-12-16T12:26:24.852Z,23.37
2022-12-16T12:29:21.610Z,22.27
2022-12-16T12:32:12.638Z,20.70
2022-12-16T12:35:04.820Z,20.17
2022-12-16T12:37:56.250Z,19.80
2022-12-16T12:40:57.958Z,19.50
2022-12-16T12:43:55.304Z,19.87
2022-12-16T12:46:52.343Z,17.37
2022-12-16T12:49:46.327Z,18.77
2022-12-16T12:52:42.201Z,19.57
2022-12-16T12:55:34.642Z,20.20
2022-12-16T12:58:21.940Z,19.63
2022-12-16T13:01:13.482Z,18.40
2022-12-16T13:04:03.102Z,18.90
2022-12-16T13:06:49.876Z,19.40
2022-12-16T13:09:47.837Z,20.20
2022-12-16T13:12:43.390Z,19.07
2022-12-16T13:15:36.632Z,18.20
2022-12-16T13:18:39.695Z,17.47
2022-12-16T13:22:06.524Z,16.90
2022-12-16T13:25:08.022Z,15.70
2022-12-16T13:28:12.946Z,17.83
2022-12-16T13:30:59.352Z,16.60
2022-12-16T13:33:49.780Z,17.47
2022-12-16T13:36:37.609Z,17.07
2022-12-16T13:39:44.001Z,18.43
2022-12-16T13:42:52.979Z,16.80
2022-12-16T13:45:50.321Z,14.93
2022-12-16T13:49:06.093Z,17.20
2022-12-16T13:52:33.326Z,17.50
2022-12-16T13:55:42.809Z,16.73
2022-12-16T13:58:38.149Z,17.17
2022-12-16T14:01:30.589Z,14.67
2022-12-16T14:04:18.225Z,14.53
2022-12-16T14:07:04.678Z,16.13
2022-12-16T14:10:09.679Z,14.60
2022-12-16T14:13:23.530Z,16.00
2022-12-16T14:16:18.542Z,15.47
2022-12-16T14:19:19.714Z,16.30
2022-12-16T14:22:09.271Z,15.37
2022-12-16T14:24:57.421Z,15.37
2022-12-16T14:27:44.250Z,14.33
2022-12-16T14:30:37.608Z,16.73
2022-12-16T14:33:40.611Z,16.00
2022-12-16T14:36:38.581Z,16.13
2022-12-16T14:39:29.145Z,14.97
2022-12-16T14:42:14.719Z,15.77
2022-12-16T14:45:03.942Z,15.77
2022-12-16T14:47:51.015Z,15.47
2022-12-16T14:50:44.449Z,14.90
2022-12-16T14:53:36.946Z,14.87
2022-12-16T14:56:36.366Z,15.63
2022-12-16T14:59:36.048Z,16.07
2022-12-16T15:02:41.157Z,14.67
2022-12-16T15:05:28.731Z,14.93
2022-12-16T15:08:14.817Z,15.37
2022-12-16T15:11:00.981Z,15.40
2022-12-16T15:13:47.311Z,14.10
2022-12-16T15:16:36.460Z,14.73
2022-12-16T15:19:23.547Z,14.97
2022-12-16T15:22:10.581Z,15.20
2022-12-16T15:24:57.689Z,15.20
2022-12-16T15:27:45.083Z,14.97
2022-12-16T15:30:50.381Z,14.23
2022-12-16T15:33:38.250Z,14.17
2022-12-16T15:36:25.160Z,14.17
2022-12-16T15:39:11.940Z,15.00
2022-12-16T15:41:57.746Z,14.03
2022-12-16T15:44:45.115Z,15.00
2022-12-16T15:47:40.188Z,14.07
2022-12-16T15:50:30.370Z,15.23
2022-12-16T15:53:34.071Z,14.77
2022-12-16T15:56:21.606Z,13.60
2022-12-16T15:59:07.508Z,16.10
2022-12-16T16:02:04.450Z,16.37
2022-12-16T16:04:51.040Z,16.33
2022-12-16T16:07:44.313Z,15.70
2022-12-16T16:10:43.828Z,16.53
2022-12-16T16:13:30.771Z,15.97
2022-12-16T16:16:16.906Z,16.80
2022-12-16T16:19:02.876Z,16.03
2022-12-16T16:21:48.995Z,17.07
2022-12-16T16:24:34.610Z,16.93
2022-12-16T16:27:22.616Z,15.60
2022-12-16T16:30:09.546Z,14.83
2022-12-16T16:32:55.234Z,16.47
2022-12-16T16:35:40.622Z,16.13
2022-12-16T16:38:28.212Z,16.00
2022-12-16T16:41:13.704Z,16.77
2022-12-16T16:43:59.267Z,15.13
2022-12-16T16:46:55.415Z,15.23
2022-12-16T16:49:46.939Z,17.23
2022-12-16T16:52:34.681Z,17.63
2022-12-16T16:55:20.718Z,18.80
2022-12-16T16:58:06.335Z,17.30
2022-12-16T17:00:52.130Z,17.77
2022-12-16T17:03:39.808Z,15.63
2022-12-16T17:06:26.063Z,19.50
2022-12-16T17:09:11.681Z,16.90
2022-12-16T17:11:57.556Z,16.13
2022-12-16T17:14:43.366Z,17.57
2022-12-16T17:17:29.055Z,17.13
2022-12-16T17:20:15.970Z,17.47
2022-12-16T17:23:01.498Z,17.10
2022-12-16T17:25:47.576Z,17.57
2022-12-16T17:28:33.382Z,17.63
2022-12-16T17:31:19.331Z,18.43
2022-12-16T17:34:05.023Z,17.50
2022-12-16T17:36:51.810Z,16.47
2022-12-16T17:39:37.297Z,21.23
2022-12-16T17:42:23.365Z,18.23
2022-12-16T17:45:09.005Z,16.63
2022-12-16T17:47:54.622Z,17.20
2022-12-16T17:50:40.137Z,17.57
2022-12-16T17:53:27.045Z,17.93
2022-12-16T17:56:12.542Z,17.77
2022-12-16T17:58:58.550Z,17.30
2022-12-16T18:01:44.146Z,16.93
2022-12-16T18:04:29.977Z,17.80
2022-12-16T18:07:15.898Z,18.00
2022-12-16T18:10:02.642Z,17.23
2022-12-16T18:12:48.964Z,16.83
2022-12-16T18:15:34.586Z,16.83
2022-12-16T18:18:19.873Z,18.57
2022-12-16T18:21:20.080Z,17.40
2022-12-16T18:24:05.579Z,18.77
2022-12-16T18:26:52.274Z,17.90
2022-12-16T18:29:37.986Z,17.73
2022-12-16T18:32:23.929Z,17.30
2022-12-16T18:35:09.819Z,19.03
2022-12-16T18:37:55.333Z,17.37
2022-12-16T18:40:40.699Z,16.83
2022-12-16T18:43:27.500Z,16.30
2022-12-16T18:46:14.154Z,16.53
2022-12-16T18:48:59.759Z,18.07
2022-12-16T18:51:45.194Z,17.57
2022-12-16T18:54:30.765Z,18.47
2022-12-16T18:57:16.494Z,17.00
2022-12-16T19:00:03.684Z,19.17
2022-12-16T19:02:49.097Z,17.03
2022-12-16T19:05:34.870Z,16.40
2022-12-16T19:08:20.372Z,18.53
2022-12-16T19:11:06.110Z,18.27
2022-12-16T19:13:54.018Z,20.73
2022-12-16T19:16:41.091Z,23.63
2022-12-16T19:19:26.910Z,21.47
2022-12-16T19:22:12.528Z,19.37
2022-12-16T19:24:58.060Z,19.63
2022-12-16T19:27:43.843Z,19.63
2022-12-16T19:30:29.734Z,21.13
2022-12-16T19:33:16.346Z,22.70
2022-12-16T19:36:01.940Z,22.87
2022-12-16T19:38:47.327Z,24.03
2022-12-16T19:41:34.083Z,24.33
2022-12-16T19:44:19.822Z,24.03
2022-12-16T19:47:05.295Z,23.70
2022-12-16T19:49:52.425Z,24.50
2022-12-16T19:52:36.603Z,23.73
2022-12-16T19:55:22.481Z,22.07
2022-12-16T19:58:08.295Z,25.93
2022-12-16T20:00:54.755Z,23.50
2022-12-16T20:03:42.577Z,25.13
2022-12-16T20:06:30.356Z,24.23
2022-12-16T20:09:30.372Z,26.10
2022-12-16T20:12:15.952Z,29.20
2022-12-16T20:15:01.571Z,25.20
2022-12-16T20:17:47.190Z,19.87
2022-12-16T20:20:32.937Z,21.83
2022-12-16T20:23:19.774Z,20.93
2022-12-16T20:26:13.049Z,21.80
2022-12-16T20:28:58.596Z,23.77
2022-12-16T20:31:44.232Z,27.20
2022-12-16T20:34:29.850Z,24.83
2022-12-16T20:37:15.362Z,24.53
2022-12-16T20:40:02.263Z,22.50
2022-12-16T20:42:47.803Z,23.87
2022-12-16T20:45:34.401Z,22.60
2022-12-16T20:48:20.271Z,21.63
2022-12-16T20:51:08.768Z,20.87
2022-12-16T20:53:56.465Z,20.80
2022-12-16T20:56:43.478Z,18.63
2022-12-16T20:59:29.078Z,19.67
2022-12-16T21:02:23.052Z,21.93
2022-12-16T21:05:11.279Z,22.57
2022-12-16T21:07:57.288Z,22.20
2022-12-16T21:10:42.661Z,23.63
2022-12-16T21:13:32.297Z,23.27
2022-12-16T21:16:18.833Z,25.70
2022-12-16T21:19:04.154Z,25.67
2022-12-16T21:21:49.496Z,24.93
2022-12-16T21:24:35.379Z,26.73
2022-12-16T21:27:20.848Z,27.13
2022-12-16T21:30:07.891Z,27.73
2022-12-16T21:32:53.755Z,26.10
2022-12-16T21:35:39.629Z,26.13
2022-12-16T21:38:28.136Z,30.07
2022-12-16T21:41:14.115Z,29.77
2022-12-16T21:44:04.764Z,27.03
2022-12-16T21:46:51.853Z,28.90
2022-12-16T21:49:37.371Z,30.23
2022-12-16T21:52:19.469Z,32.07
2022-12-16T21:55:06.069Z,34.20
2022-12-16T21:57:51.620Z,32.33
2022-12-16T22:00:38.687Z,30.43
2022-12-16T22:03:25.635Z,33.40
2022-12-16T22:06:11.286Z,34.53
2022-12-16T22:08:57.103Z,32.13
2022-12-16T22:11:42.756Z,31.57
2022-12-16T22:14:28.263Z,30.90
2022-12-16T22:17:14.002Z,33.90
2022-12-16T22:20:00.796Z,33.33
2022-12-16T22:22:51.416Z,34.13
2022-12-16T22:25:37.656Z,33.17
2022-12-16T22:28:25.321Z,35.43
2022-12-16T22:34:20.887Z,32.00
2022-12-16T22:37:07.795Z,32.33
2022-12-16T22:39:53.582Z,33.70
2022-12-16T22:42:42.119Z,34.90
2022-12-16T22:45:28.581Z,34.67
2022-12-16T22:48:14.565Z,35.27
2022-12-16T22:51:00.079Z,34.20
2022-12-16T22:53:46.824Z,34.60
2022-12-16T22:56:32.107Z,34.90
2022-12-16T22:59:17.575Z,34.23
2022-12-16T23:02:02.957Z,35.37
2022-12-16T23:05:00.157Z,33.07
2022-12-16T23:07:46.344Z,34.40
2022-12-16T23:10:33.166Z,34.37
2022-12-16T23:13:18.935Z,35.80
2022-12-16T23:16:04.551Z,33.50
2022-12-16T23:18:50.313Z,32.33
2022-12-16T23:21:37.401Z,35.63
2022-12-16T23:24:23.858Z,35.03
2022-12-16T23:27:10.533Z,35.27
2022-12-16T23:29:56.822Z,34.90
2022-12-16T23:32:31.348Z,33.40
2022-12-16T23:32:42.841Z,35.17
2022-12-16T23:35:28.927Z,34.27
2022-12-16T23:38:19.480Z,34.87
2022-12-16T23:41:05.421Z,36.23
2022-12-16T23:43:52.234Z,35.73
2022-12-16T23:46:37.728Z,34.70
2022-12-16T23:49:23.519Z,35.53
2022-12-16T23:52:14.217Z,38.53
2022-12-16T23:54:56.133Z,35.80
2022-12-16T23:57:42.026Z,38.37
